Time;durP1;ratioP1;P1;durP2;ratioP2;P2;SDS_P1;SDS_P2;PMS_P1;PMS_P2;Temp;Humidity;BMP_temperature;BMP_pressure;BME280_temperature;BME280_humidity;BME280_pressure;Samples;Min_cycle;Max_cycle;Signal;HPM_P1;HPM_P2
2023/12/26 00:01:47;;;;;;;3.60;1.67;;;;;;;10.67;87.58;97832.66;4086986;28;20645;-86
2023/12/26 00:03:50;;;;;;;2.53;1.60;;;;;;;10.63;86.92;97825.16;4105863;28;20663;-88
2023/12/26 00:05:53;;;;;;;3.73;1.60;;;;;;;10.56;86.86;97823.97;4104349;28;20648;-86
2023/12/26 00:07:57;;;;;;;2.43;1.40;;;;;;;10.53;87.01;97811.97;4089013;28;21081;-85
2023/12/26 00:10:00;;;;;;;5.83;2.03;;;;;;;10.56;87.29;97816.16;4107442;28;20715;-86
2023/12/26 00:12:04;;;;;;;3.45;1.85;;;;;;;10.56;87.60;97816.97;4089730;28;20646;-86
2023/12/26 00:14:12;;;;;;;3.30;1.50;;;;;;;10.53;86.91;97817.19;4107502;28;20219;-86
2023/12/26 00:16:15;;;;;;;2.23;1.50;;;;;;;10.50;87.53;97817.41;4101974;28;20667;-86
2023/12/26 00:18:19;;;;;;;4.10;1.73;;;;;;;10.49;87.51;97818.38;4109400;28;21204;-85
2023/12/26 00:20:21;;;;;;;3.27;1.47;;;;;;;10.47;87.94;97809.00;4105823;28;20667;-85
2023/12/26 00:22:24;;;;;;;2.63;1.33;;;;;;;10.47;87.32;97811.59;4101829;28;20654;-88
2023/12/26 00:24:27;;;;;;;6.23;1.57;;;;;;;10.47;87.41;97817.63;4085443;28;20727;-85
2023/12/26 00:26:30;;;;;;;3.70;1.87;;;;;;;10.49;87.85;97820.13;4119785;28;20738;-85
2023/12/26 00:28:35;;;;;;;3.40;1.77;;;;;;;10.45;87.18;97813.50;4090988;28;20696;-85
2023/12/26 00:30:41;;;;;;;3.60;1.60;;;;;;;10.44;88.00;97819.63;4086362;28;20652;-86
2023/12/26 00:32:44;;;;;;;4.33;2.07;;;;;;;10.37;88.17;97816.66;4103315;28;20688;-85
2023/12/26 00:34:48;;;;;;;2.90;1.67;;;;;;;10.38;88.12;97817.47;4105622;28;20703;-86
2023/12/26 00:36:50;;;;;;;5.00;1.97;;;;;;;10.47;87.60;97816.81;4105857;28;20735;-85
2023/12/26 00:38:53;;;;;;;2.83;1.40;;;;;;;10.52;87.92;97825.13;4106923;28;20660;-86
2023/12/26 00:40:57;;;;;;;6.35;1.75;;;;;;;10.60;87.88;97820.19;4103649;28;20709;-85
2023/12/26 00:43:00;;;;;;;3.30;1.60;;;;;;;10.61;87.37;97817.47;4106633;28;20271;-85
2023/12/26 00:45:03;;;;;;;2.60;1.63;;;;;;;10.66;86.68;97824.94;4116102;28;21903;-85
2023/12/26 00:47:09;;;;;;;3.70;1.90;;;;;;;10.72;87.59;97822.75;4109572;28;20624;-86
2023/12/26 00:49:12;;;;;;;3.88;1.58;;;;;;;10.74;86.10;97823.47;4101313;28;21015;-85
2023/12/26 00:51:16;;;;;;;3.90;1.70;;;;;;;10.80;86.89;97824.78;4103868;28;20247;-86
2023/12/26 00:53:19;;;;;;;4.13;1.90;;;;;;;10.86;86.70;97818.16;4107285;28;21964;-85
2023/12/26 00:55:23;;;;;;;3.13;1.67;;;;;;;10.92;87.02;97822.09;4089424;28;20715;-85
2023/12/26 00:57:27;;;;;;;3.57;1.70;;;;;;;10.96;85.91;97832.22;4121998;28;20659;-85
2023/12/26 00:59:42;;;;;;;3.13;1.70;;;;;;;11.01;86.42;97826.66;4086003;28;20676;-86
2023/12/26 01:01:44;;;;;;;6.90;1.70;;;;;;;11.03;85.60;97832.56;4117817;28;20657;-86
2023/12/26 01:03:49;;;;;;;4.10;1.60;;;;;;;11.04;86.16;97829.84;4101681;28;20782;-86
2023/12/26 01:05:52;;;;;;;2.83;1.77;;;;;;;11.07;84.98;97834.03;4106093;28;20910;-86
2023/12/26 01:07:55;;;;;;;2.70;1.70;;;;;;;11.05;85.57;97828.91;4122520;28;20656;-85
2023/12/26 01:10:00;;;;;;;3.03;1.80;;;;;;;11.09;85.48;97832.13;4091365;28;20652;-85
2023/12/26 01:12:05;;;;;;;3.83;1.67;;;;;;;11.13;84.32;97831.78;4100687;28;20672;-85
2023/12/26 01:14:17;;;;;;;3.40;1.90;;;;;;;11.17;86.05;97828.00;4108622;28;20640;-85
2023/12/26 01:16:23;;;;;;;4.87;2.07;;;;;;;11.20;86.26;97822.56;4107916;28;20751;-85
2023/12/26 01:18:26;;;;;;;4.00;1.90;;;;;;;11.25;85.95;97841.31;4105208;28;20662;-85
2023/12/26 01:20:31;;;;;;;2.73;1.50;;;;;;;11.27;85.95;97831.56;4122908;28;20647;-85
2023/12/26 01:22:34;;;;;;;3.37;1.67;;;;;;;11.23;85.47;97839.75;4106993;28;21310;-85
2023/12/26 01:24:37;;;;;;;3.33;2.00;;;;;;;11.15;84.71;97836.88;4089579;28;20657;-85
2023/12/26 01:26:40;;;;;;;5.93;2.00;;;;;;;11.14;84.20;97841.28;4111252;28;20691;-86
2023/12/26 01:28:44;;;;;;;3.37;1.73;;;;;;;11.19;84.72;97841.75;4108735;28;21250;-86
2023/12/26 01:30:47;;;;;;;3.73;1.90;;;;;;;11.22;84.78;97846.75;4104798;28;20666;-83
2023/12/26 01:32:50;;;;;;;5.97;2.50;;;;;;;11.24;84.51;97847.47;4107794;28;20660;-83
2023/12/26 01:35:15;;;;;;;2.50;1.90;;;;;;;11.26;85.50;97856.03;4093744;28;20648;-84
2023/12/26 01:37:20;;;;;;;2.73;1.70;;;;;;;11.28;85.77;97862.78;4104588;28;20668;-84
2023/12/26 01:39:25;;;;;;;4.63;2.33;;;;;;;11.30;84.22;97862.66;4121164;28;20664;-84
2023/12/26 01:41:28;;;;;;;4.70;2.47;;;;;;;11.30;85.44;97860.06;4108048;28;20653;-84
2023/12/26 01:43:31;;;;;;;4.30;2.03;;;;;;;11.32;85.32;97866.00;4111456;28;20995;-84
2023/12/26 01:45:34;;;;;;;4.50;2.50;;;;;;;11.30;84.83;97866.09;4103299;28;20662;-83
2023/12/26 01:47:38;;;;;;;3.13;2.00;;;;;;;11.32;85.85;97869.44;4104695;28;20627;-84
2023/12/26 01:49:40;;;;;;;3.00;1.70;;;;;;;11.34;85.89;97871.94;4124164;28;20662;-83
2023/12/26 01:51:46;;;;;;;3.10;2.10;;;;;;;11.35;85.36;97876.19;4108133;28;20660;-84
2023/12/26 01:53:51;;;;;;;3.23;2.27;;;;;;;11.37;84.09;97874.31;4107332;28;21208;-83
2023/12/26 01:56:13;;;;;;;2.73;1.60;;;;;;;11.37;84.24;97875.16;4100232;28;21271;-83
2023/12/26 01:58:17;;;;;;;3.33;1.90;;;;;;;11.37;85.14;97880.38;4107558;28;20659;-84
2023/12/26 02:00:49;;;;;;;2.90;1.70;;;;;;;11.38;85.06;97873.38;4089361;28;21205;-82
2023/12/26 02:02:53;;;;;;;3.43;1.80;;;;;;;11.39;84.17;97880.25;4099003;28;20668;-83
2023/12/26 02:04:59;;;;;;;5.47;2.00;;;;;;;11.35;84.11;97869.22;4108343;28;20855;-85
2023/12/26 02:07:03;;;;;;;2.93;1.50;;;;;;;11.31;85.22;97872.19;4109808;28;20651;-85
2023/12/26 02:09:17;;;;;;;4.20;1.87;;;;;;;11.27;84.08;97871.59;4121612;28;20678;-83
2023/12/26 02:11:21;;;;;;;4.13;1.90;;;;;;;11.23;84.32;97866.72;4106279;28;20690;-84
2023/12/26 02:13:26;;;;;;;4.97;2.17;;;;;;;11.18;85.82;97866.19;4103888;28;21303;-84
2023/12/26 02:15:30;;;;;;;4.93;1.67;;;;;;;11.15;85.20;97869.03;4090489;28;20722;-84
2023/12/26 02:17:35;;;;;;;3.07;1.67;;;;;;;11.18;85.52;97874.03;4110735;28;20669;-84
2023/12/26 02:20:00;;;;;;;3.30;1.77;;;;;;;11.19;86.03;97880.09;4099939;28;20663;-84
2023/12/26 02:22:04;;;;;;;3.63;1.90;;;;;;;11.22;84.65;97870.25;4103744;28;20683;-84
2023/12/26 02:24:23;;;;;;;3.03;1.60;;;;;;;11.21;84.61;97889.47;4087548;28;20652;-84
2023/12/26 02:26:29;;;;;;;3.77;2.00;;;;;;;11.23;85.47;97887.59;4110138;28;20714;-84
2023/12/26 02:28:32;;;;;;;3.13;1.70;;;;;;;11.25;85.15;97888.28;4104234;28;21341;-84
2023/12/26 02:30:36;;;;;;;3.40;1.80;;;;;;;11.25;84.84;97885.69;4102610;28;20661;-84
2023/12/26 02:32:41;;;;;;;2.77;1.60;;;;;;;11.26;84.99;97892.59;4108150;28;20683;-85
2023/12/26 02:34:55;;;;;;;3.07;1.57;;;;;;;11.25;85.23;97885.69;4107713;28;20643;-84
2023/12/26 02:36:58;;;;;;;3.20;1.73;;;;;;;11.25;85.83;97896.13;4100598;28;21063;-83
2023/12/26 02:39:11;;;;;;;3.20;1.50;;;;;;;11.25;84.55;97901.34;4107993;28;21068;-84
2023/12/26 02:41:17;;;;;;;3.40;1.87;;;;;;;11.17;85.25;97901.09;4103573;28;21335;-84
2023/12/26 02:43:21;;;;;;;3.80;1.77;;;;;;;11.16;85.63;97901.19;4105613;28;20648;-85
2023/12/26 02:45:24;;;;;;;4.50;1.97;;;;;;;11.13;84.62;97902.25;4101334;28;20664;-84
2023/12/26 02:47:27;;;;;;;2.90;1.80;;;;;;;11.02;84.82;97889.16;4108637;28;20640;-85
2023/12/26 02:49:31;;;;;;;3.37;1.80;;;;;;;10.95;85.29;97887.94;4106551;28;21224;-84
2023/12/26 02:51:35;;;;;;;5.13;2.00;;;;;;;10.95;86.63;97894.94;4088343;28;20651;-85
2023/12/26 02:53:38;;;;;;;5.50;2.00;;;;;;;10.98;86.65;97894.72;4104015;28;21014;-84
2023/12/26 02:55:42;;;;;;;2.70;1.70;;;;;;;10.95;86.93;97897.53;4105642;28;21091;-85
2023/12/26 02:57:46;;;;;;;2.17;1.60;;;;;;;10.82;85.48;97900.22;4091386;28;20669;-84
2023/12/26 02:59:49;;;;;;;7.40;1.77;;;;;;;10.74;85.72;97895.66;4087884;28;20700;-84
2023/12/26 03:01:52;;;;;;;3.20;1.63;;;;;;;10.79;86.31;97896.97;4089221;28;20633;-84
2023/12/26 03:03:55;;;;;;;2.10;1.40;;;;;;;10.85;85.97;97901.75;4106752;28;20691;-84
2023/12/26 03:06:14;;;;;;;4.37;1.53;;;;;;;10.75;86.99;97897.31;4110068;28;20656;-85
2023/12/26 03:08:19;;;;;;;3.50;2.00;;;;;;;10.69;86.46;97892.53;4109524;28;20662;-84
2023/12/26 03:10:23;;;;;;;2.53;1.50;;;;;;;10.58;86.70;97892.47;4108126;28;20723;-84
2023/12/26 03:12:26;;;;;;;3.83;1.70;;;;;;;10.60;86.90;97893.19;4108466;28;20657;-85
2023/12/26 03:14:45;;;;;;;2.90;1.43;;;;;;;10.58;86.31;97892.47;4119589;28;20652;-84
2023/12/26 03:16:50;;;;;;;2.00;1.20;;;;;;;10.62;86.74;97893.94;4087429;28;20653;-84
2023/12/26 03:18:53;;;;;;;4.47;1.88;;;;;;;10.56;85.85;97889.16;4105984;28;20693;-84
2023/12/26 03:20:56;;;;;;;1.80;1.30;;;;;;;10.58;85.96;97901.13;4083553;28;20276;-85
2023/12/26 03:22:59;;;;;;;2.50;1.40;;;;;;;10.64;85.60;97897.25;4088000;28;21059;-84
2023/12/26 03:25:02;;;;;;;2.50;1.50;;;;;;;10.62;85.27;97891.34;4107917;28;20759;-84
2023/12/26 03:27:07;;;;;;;1.97;1.30;;;;;;;10.62;85.72;97889.53;4106728;28;20652;-84
2023/12/26 03:29:20;;;;;;;4.67;1.73;;;;;;;10.60;85.27;97885.38;4105531;28;20677;-85
2023/12/26 03:31:24;;;;;;;2.93;1.50;;;;;;;10.54;85.39;97891.88;4100301;28;21295;-85
2023/12/26 03:33:28;;;;;;;2.43;1.37;;;;;;;10.48;84.77;97883.66;4095822;28;21243;-84
2023/12/26 03:35:31;;;;;;;4.00;1.70;;;;;;;10.35;84.97;97886.28;4117909;28;20639;-84
2023/12/26 03:37:34;;;;;;;2.40;1.40;;;;;;;10.29;85.51;97888.50;4108138;28;20217;-84
2023/12/26 03:39:49;;;;;;;3.40;1.70;;;;;;;10.31;85.86;97891.81;4104407;28;20660;-84
2023/12/26 03:41:52;;;;;;;3.30;2.00;;;;;;;10.30;86.53;97881.50;4107763;28;20651;-85
2023/12/26 03:43:56;;;;;;;2.10;1.47;;;;;;;10.29;86.69;97890.28;4106309;28;20247;-84
2023/12/26 03:45:59;;;;;;;2.92;1.58;;;;;;;10.24;86.20;97893.22;4089913;28;20657;-85
2023/12/26 03:48:05;;;;;;;3.20;1.73;;;;;;;10.22;86.34;97895.06;4120950;28;20282;-84
2023/12/26 03:50:10;;;;;;;5.63;1.90;;;;;;;10.22;86.60;97894.25;4104291;28;20686;-84
2023/12/26 03:52:13;;;;;;;5.40;1.83;;;;;;;10.16;87.55;97902.50;4107758;28;20662;-84
2023/12/26 03:54:22;;;;;;;3.27;1.80;;;;;;;10.08;86.77;97897.00;4110568;28;20651;-84
2023/12/26 03:56:30;;;;;;;4.07;1.83;;;;;;;9.99;87.66;97898.44;4099861;28;20656;-85
2023/12/26 03:58:33;;;;;;;7.00;1.70;;;;;;;9.99;87.45;97890.63;4106968;28;21085;-84
2023/12/26 04:00:37;;;;;;;4.03;1.80;;;;;;;10.02;87.50;97897.41;4101495;28;21497;-84
2023/12/26 04:02:41;;;;;;;9.90;3.88;;;;;;;9.93;87.44;97888.44;4105250;28;20744;-84
2023/12/26 04:04:49;;;;;;;5.40;1.73;;;;;;;9.92;88.31;97899.78;4084553;28;20229;-84
2023/12/26 04:06:52;;;;;;;4.13;1.40;;;;;;;9.98;87.14;97890.75;4092793;28;20959;-84
2023/12/26 04:11:14;;;;;;;3.43;1.70;;;;;;;10.06;86.55;97894.50;4105860;28;20659;-84
2023/12/26 04:13:16;;;;;;;5.00;1.63;;;;;;;10.13;86.52;97885.31;4102354;28;20662;-85
2023/12/26 04:15:20;;;;;;;2.97;1.60;;;;;;;10.12;86.41;97888.03;4098257;28;20632;-85
2023/12/26 04:17:23;;;;;;;4.40;1.40;;;;;;;10.09;84.89;97889.06;4099142;28;20293;-84
2023/12/26 04:19:42;;;;;;;2.67;1.60;;;;;;;10.16;85.73;97892.91;4100780;28;20948;-84
2023/12/26 04:21:47;;;;;;;3.53;1.50;;;;;;;10.26;84.81;97886.09;4091552;28;21231;-85
2023/12/26 04:23:50;;;;;;;2.97;1.40;;;;;;;10.35;84.54;97896.72;4097273;28;20660;-85
2023/12/26 04:25:54;;;;;;;2.70;1.30;;;;;;;10.39;83.80;97889.53;4087734;28;20664;-84
2023/12/26 04:27:58;;;;;;;3.07;1.63;;;;;;;10.34;84.64;97899.44;4104495;28;20644;-84
2023/12/26 04:30:12;;;;;;;3.40;1.45;;;;;;;10.41;84.30;97892.84;4091025;28;20652;-84
2023/12/26 04:32:15;;;;;;;3.53;1.40;;;;;;;10.46;83.02;97893.34;4089456;28;20221;-84
2023/12/26 04:34:18;;;;;;;5.53;1.60;;;;;;;10.54;84.14;97899.69;4103530;28;20746;-84
2023/12/26 04:36:22;;;;;;;4.07;1.73;;;;;;;10.53;82.75;97899.81;4103588;28;20646;-84
2023/12/26 04:38:26;;;;;;;5.23;1.60;;;;;;;10.56;84.08;97899.59;4089018;29;20648;-84
2023/12/26 04:40:30;;;;;;;9.23;2.70;;;;;;;10.61;82.67;97903.50;4103823;28;20644;-84
2023/12/26 04:42:33;;;;;;;5.43;1.90;;;;;;;10.64;82.13;97897.25;4104118;28;20652;-84
2023/12/26 04:44:37;;;;;;;2.80;1.43;;;;;;;10.72;81.95;97902.75;4104500;28;20271;-84
2023/12/26 04:46:40;;;;;;;3.50;1.50;;;;;;;10.74;81.65;97913.94;4106495;28;21236;-84
2023/12/26 04:48:44;;;;;;;3.50;1.67;;;;;;;10.74;82.18;97913.94;4091153;28;20641;-84
2023/12/26 04:50:48;;;;;;;4.30;1.60;;;;;;;10.72;82.80;97910.56;4104790;28;20656;-84
2023/12/26 04:52:52;;;;;;;4.03;1.50;;;;;;;10.72;82.59;97907.97;4091352;28;20756;-84
2023/12/26 04:54:57;;;;;;;3.67;1.83;;;;;;;10.65;81.65;97910.19;4106166;28;20647;-85
2023/12/26 04:57:00;;;;;;;2.60;1.50;;;;;;;10.61;82.14;97910.50;4092299;28;21108;-82
2023/12/26 05:01:26;;;;;;;6.93;1.70;;;;;;;10.63;81.06;97911.22;4089300;28;20652;-84
2023/12/26 05:03:30;;;;;;;3.97;1.60;;;;;;;10.63;83.03;97906.00;4110615;28;21082;-84
2023/12/26 05:05:33;;;;;;;3.70;1.50;;;;;;;10.66;81.55;97909.25;4110790;28;20647;-84
2023/12/26 05:07:35;;;;;;;5.47;1.83;;;;;;;10.70;81.20;97915.06;4112892;28;20640;-85
2023/12/26 05:09:51;;;;;;;4.90;1.57;;;;;;;10.76;81.99;97912.84;4113232;28;20643;-83
2023/12/26 05:11:56;;;;;;;3.83;1.63;;;;;;;10.79;82.29;97907.41;4092208;28;21281;-84
2023/12/26 05:14:12;;;;;;;4.43;1.70;;;;;;;10.78;82.55;97908.38;4105046;28;20656;-84
2023/12/26 05:16:14;;;;;;;5.77;2.67;;;;;;;10.70;81.79;97907.25;4107839;28;20668;-82
2023/12/26 05:18:17;;;;;;;4.80;1.70;;;;;;;10.72;81.62;97903.59;4095876;28;21115;-82
2023/12/26 05:20:21;;;;;;;7.27;2.37;;;;;;;10.76;81.99;97907.63;4093333;28;20672;-83
2023/12/26 05:22:33;;;;;;;6.70;2.10;;;;;;;10.80;80.89;97910.88;4088516;28;20692;-83
2023/12/26 05:24:54;;;;;;;6.60;2.10;;;;;;;10.79;81.05;97909.19;4106243;28;20663;-83
2023/12/26 05:26:59;;;;;;;6.50;2.70;;;;;;;10.80;81.08;97911.69;4107731;28;20747;-83
2023/12/26 05:29:02;;;;;;;4.33;1.97;;;;;;;10.74;81.56;97911.31;4125867;28;20651;-84
2023/12/26 05:31:04;;;;;;;3.10;1.70;;;;;;;10.84;81.18;97921.81;4104423;28;21228;-83
2023/12/26 05:33:08;;;;;;;7.63;1.63;;;;;;;10.87;81.35;97928.59;4096475;28;20641;-84
2023/12/26 05:35:12;;;;;;;8.03;3.50;;;;;;;10.85;80.31;97923.47;4106072;28;21335;-83
2023/12/26 05:37:15;;;;;;;5.40;1.93;;;;;;;10.92;81.38;97937.72;4121010;28;20654;-84
2023/12/26 05:39:19;;;;;;;4.27;1.80;;;;;;;10.91;80.51;97940.44;4109016;28;20755;-83
2023/12/26 05:41:23;;;;;;;3.87;1.60;;;;;;;10.93;80.96;97944.63;4093645;28;20691;-83
2023/12/26 05:43:27;;;;;;;5.63;1.90;;;;;;;11.00;80.06;97952.84;4105700;28;20637;-84
2023/12/26 05:45:38;;;;;;;3.60;1.90;;;;;;;10.92;81.37;97944.72;4093465;28;20655;-84
2023/12/26 05:47:42;;;;;;;5.97;1.93;;;;;;;10.98;80.84;97946.91;4096033;28;20743;-86
2023/12/26 05:49:46;;;;;;;3.60;1.73;;;;;;;10.99;79.51;97962.44;4095827;28;20649;-86
2023/12/26 05:51:48;;;;;;;5.63;2.07;;;;;;;10.95;81.21;97949.72;4094293;28;20740;-84
2023/12/26 05:53:52;;;;;;;6.23;2.00;;;;;;;10.95;81.07;97954.94;4087621;28;20696;-86
2023/12/26 05:55:54;;;;;;;7.10;2.00;;;;;;;10.98;79.76;97955.56;4109024;28;20652;-84
2023/12/26 05:57:57;;;;;;;7.40;2.30;;;;;;;11.02;80.12;97956.16;4123268;28;20651;-88
2023/12/26 06:00:04;;;;;;;6.73;2.20;;;;;;;11.05;79.82;97955.94;4102494;28;21007;-84
2023/12/26 06:02:18;;;;;;;3.77;2.20;;;;;;;11.06;80.43;97953.22;4111525;28;20644;-85
2023/12/26 06:04:21;;;;;;;8.10;3.10;;;;;;;11.06;79.39;97948.00;4112728;28;20648;-85
2023/12/26 06:06:24;;;;;;;5.27;2.40;;;;;;;11.02;79.42;97946.56;4105606;28;20782;-85
2023/12/26 06:08:28;;;;;;;7.20;3.10;;;;;;;11.00;80.56;97951.03;4091946;28;20653;-85
2023/12/26 06:10:31;;;;;;;5.77;2.90;;;;;;;10.95;80.76;97949.72;4111958;28;20651;-85
2023/12/26 06:12:34;;;;;;;6.67;2.60;;;;;;;10.80;80.17;97943.81;4121280;28;20647;-84
2023/12/26 06:14:39;;;;;;;4.00;2.07;;;;;;;10.68;80.48;97943.88;4112259;28;20655;-84
2023/12/26 06:16:43;;;;;;;9.73;3.13;;;;;;;10.63;82.30;97940.78;4106999;28;20637;-84
2023/12/26 06:18:47;;;;;;;4.53;2.27;;;;;;;10.57;80.75;97946.41;4110581;28;20664;-84
2023/12/26 06:20:50;;;;;;;3.63;1.67;;;;;;;10.53;81.79;97933.69;4085926;28;20708;-85
2023/12/26 06:22:53;;;;;;;3.40;1.90;;;;;;;10.46;82.06;97940.28;4096210;28;20885;-85
2023/12/26 06:24:57;;;;;;;4.73;1.70;;;;;;;10.42;82.38;97944.88;4095400;28;20684;-85
2023/12/26 06:27:00;;;;;;;2.70;1.40;;;;;;;10.38;82.42;97950.41;4124999;28;20650;-85
2023/12/26 06:31:25;;;;;;;2.47;1.60;;;;;;;10.32;82.57;97954.28;4097708;28;20656;-85
2023/12/26 06:33:30;;;;;;;4.57;1.80;;;;;;;10.32;82.66;97952.63;4108914;28;20654;-84
2023/12/26 06:35:34;;;;;;;3.80;1.60;;;;;;;10.33;82.25;97952.53;4105769;28;20655;-85
2023/12/26 06:37:36;;;;;;;4.40;1.97;;;;;;;10.31;82.75;97951.78;4110183;28;20632;-84
2023/12/26 06:39:40;;;;;;;7.07;2.07;;;;;;;10.31;83.03;97948.34;4109450;28;20675;-85
2023/12/26 06:41:43;;;;;;;2.40;1.50;;;;;;;10.31;83.65;97953.56;4089995;28;20663;-84
2023/12/26 06:43:46;;;;;;;7.85;2.40;;;;;;;10.36;82.83;97953.13;4093978;28;20665;-84
2023/12/26 06:45:50;;;;;;;4.57;1.70;;;;;;;10.39;82.13;97952.09;4093674;28;20217;-84
2023/12/26 06:47:53;;;;;;;6.43;1.90;;;;;;;10.42;81.77;97968.34;4111981;28;20659;-84
2023/12/26 06:49:58;;;;;;;4.90;1.80;;;;;;;10.49;82.28;97971.34;4090758;28;20649;-84
2023/12/26 06:52:02;;;;;;;5.03;1.50;;;;;;;10.55;82.01;97970.91;4108836;28;20700;-85
2023/12/26 06:54:05;;;;;;;3.37;2.17;;;;;;;10.58;81.60;97979.34;4090244;28;20644;-85
2023/12/26 06:56:09;;;;;;;5.77;2.07;;;;;;;10.62;81.38;97990.41;4102320;28;21014;-85
2023/12/26 06:58:12;;;;;;;6.37;2.40;;;;;;;10.67;81.61;97996.97;4106225;28;20648;-84
2023/12/26 07:00:20;;;;;;;2.50;1.80;;;;;;;10.73;82.24;97990.50;4105340;28;20688;-83
2023/12/26 07:02:23;;;;;;;3.40;1.70;;;;;;;10.78;82.27;97996.22;4089525;28;20645;-85
2023/12/26 07:04:27;;;;;;;4.60;2.00;;;;;;;10.82;81.40;97996.75;4092708;28;20648;-85
2023/12/26 07:06:32;;;;;;;3.20;1.70;;;;;;;10.86;82.40;97998.16;4090539;28;21256;-84
2023/12/26 07:08:36;;;;;;;6.47;2.20;;;;;;;10.89;80.69;98011.00;4104300;28;20643;-84
2023/12/26 07:10:38;;;;;;;4.70;2.40;;;;;;;10.94;82.27;98006.28;4105278;28;20743;-84
2023/12/26 07:12:41;;;;;;;2.70;1.77;;;;;;;10.99;82.80;98008.56;4095290;28;20686;-84
2023/12/26 07:14:45;;;;;;;5.03;1.87;;;;;;;11.02;82.11;98009.19;4110116;28;20714;-84
2023/12/26 07:16:48;;;;;;;8.20;1.90;;;;;;;11.05;80.59;98010.75;4105220;28;20660;-85
2023/12/26 07:18:53;;;;;;;3.50;1.90;;;;;;;11.05;81.49;98011.59;4092425;28;20658;-84
2023/12/26 07:20:57;;;;;;;4.93;2.23;;;;;;;11.03;81.00;98008.22;4087146;28;20760;-86
2023/12/26 07:23:02;;;;;;;3.90;1.70;;;;;;;11.05;81.52;98016.81;4090434;28;20685;-86
2023/12/26 07:25:04;;;;;;;4.87;2.20;;;;;;;11.04;80.52;98015.13;4093370;28;20664;-87
2023/12/26 07:27:08;;;;;;;3.57;1.57;;;;;;;11.05;80.81;98022.03;4110403;28;20783;-86
2023/12/26 07:29:11;;;;;;;3.43;1.63;;;;;;;11.07;81.27;98027.16;4102114;28;20695;-86
2023/12/26 07:31:18;;;;;;;4.23;2.00;;;;;;;11.09;81.31;98035.69;4101334;28;20702;-86
2023/12/26 07:33:21;;;;;;;6.10;3.67;;;;;;;11.09;79.81;98030.47;4120845;28;21118;-86
2023/12/26 07:35:25;;;;;;;3.57;1.87;;;;;;;11.09;81.08;98039.13;4103197;28;20695;-86
2023/12/26 07:37:28;;;;;;;4.37;1.90;;;;;;;11.09;80.08;98041.72;4105637;28;20728;-87
2023/12/26 07:39:32;;;;;;;4.70;1.97;;;;;;;11.08;79.80;98050.53;4087008;28;20644;-87
2023/12/26 07:41:35;;;;;;;3.00;1.60;;;;;;;11.06;80.96;98059.38;4091953;28;20688;-86
2023/12/26 07:43:38;;;;;;;5.17;2.10;;;;;;;11.02;79.74;98050.94;4106431;28;20715;-87
2023/12/26 07:45:42;;;;;;;3.57;1.73;;;;;;;11.05;81.10;98060.31;4104813;28;21274;-87
2023/12/26 07:47:45;;;;;;;4.53;1.80;;;;;;;11.04;80.50;98063.91;4108115;28;20671;-87
2023/12/26 07:49:47;;;;;;;5.60;2.30;;;;;;;11.01;80.02;98069.34;4107669;28;20655;-87
2023/12/26 07:51:51;;;;;;;5.17;2.53;;;;;;;10.97;79.53;98065.25;4092204;28;20743;-87
2023/12/26 07:53:54;;;;;;;4.33;1.93;;;;;;;10.98;80.82;98074.75;4108500;28;20740;-87
2023/12/26 07:55:59;;;;;;;7.50;1.60;;;;;;;10.87;80.66;98074.69;4102361;28;20661;-86
2023/12/26 07:58:03;;;;;;;4.40;2.17;;;;;;;10.84;80.53;98082.72;4100940;28;20656;-87
2023/12/26 08:00:13;;;;;;;4.20;1.60;;;;;;;10.83;81.45;98078.44;4101271;28;21228;-86
2023/12/26 08:02:16;;;;;;;4.97;2.10;;;;;;;10.82;80.93;98075.00;4103756;28;20660;-87
2023/12/26 08:04:19;;;;;;;3.63;1.40;;;;;;;10.86;82.27;98086.88;4104827;28;20699;-87
2023/12/26 08:06:24;;;;;;;8.93;2.10;;;;;;;10.80;81.14;98082.09;4106007;28;20686;-88
2023/12/26 08:08:27;;;;;;;6.90;1.90;;;;;;;10.75;81.91;98090.34;4109286;28;20699;-87
2023/12/26 08:10:32;;;;;;;5.60;2.27;;;;;;;10.73;81.96;98085.22;4107714;28;20668;-88
2023/12/26 08:12:37;;;;;;;5.43;2.83;;;;;;;10.78;81.87;98092.72;4103817;28;20735;-87
2023/12/26 08:14:40;;;;;;;6.80;3.23;;;;;;;10.76;82.59;98085.00;4116806;28;21262;-88
2023/12/26 08:16:44;;;;;;;5.50;1.80;;;;;;;10.76;81.85;98092.84;4102813;28;20732;-89
2023/12/26 08:18:48;;;;;;;7.60;2.37;;;;;;;10.74;82.07;98086.91;4106372;28;20648;-89
2023/12/26 08:20:50;;;;;;;4.37;1.90;;;;;;;10.73;81.65;98092.22;4086442;28;20677;-85
2023/12/26 08:22:53;;;;;;;6.60;1.90;;;;;;;10.73;82.54;98092.22;4099450;28;20699;-85
2023/12/26 08:24:57;;;;;;;6.40;2.10;;;;;;;10.75;81.82;98103.38;4103481;28;20637;-85
2023/12/26 08:27:00;;;;;;;8.20;2.17;;;;;;;10.74;81.85;98099.94;4097520;28;21585;-88
2023/12/26 08:29:21;;;;;;;7.37;1.80;;;;;;;10.69;82.65;98099.44;4106103;28;20695;-88
2023/12/26 08:31:27;;;;;;;3.77;2.00;;;;;;;10.68;83.42;98097.75;4103945;28;21243;-87
2023/12/26 08:33:31;;;;;;;5.07;2.03;;;;;;;10.68;82.97;98097.75;4114803;28;20668;-88
2023/12/26 08:35:35;;;;;;;7.97;4.23;;;;;;;10.70;82.44;98105.47;4096090;28;21402;-86
2023/12/26 08:37:38;;;;;;;8.37;2.27;;;;;;;10.75;83.12;98105.97;4097596;28;20636;-86
2023/12/26 08:39:41;;;;;;;4.10;2.33;;;;;;;10.74;82.65;98117.38;4105290;28;20663;-86
2023/12/26 08:41:45;;;;;;;7.10;2.10;;;;;;;10.76;82.84;98118.09;4086348;28;20727;-87
2023/12/26 08:43:48;;;;;;;4.60;2.20;;;;;;;10.75;82.83;98121.63;4106277;28;21209;-87
2023/12/26 08:45:52;;;;;;;5.60;2.13;;;;;;;10.73;82.99;98121.75;4086557;28;20729;-85
2023/12/26 08:47:56;;;;;;;3.87;2.00;;;;;;;10.75;82.64;98127.69;4124598;28;20647;-86
2023/12/26 08:50:00;;;;;;;4.60;2.57;;;;;;;10.75;83.33;98132.06;4104150;28;20664;-86
2023/12/26 08:52:03;;;;;;;6.00;2.23;;;;;;;10.76;82.95;98136.34;4108376;28;21532;-86
2023/12/26 08:54:09;;;;;;;3.50;2.07;;;;;;;10.77;83.22;98133.66;4093036;28;21107;-87
2023/12/26 08:56:12;;;;;;;4.10;2.13;;;;;;;10.78;83.07;98137.94;4106691;28;20763;-89
2023/12/26 08:58:15;;;;;;;7.60;2.90;;;;;;;10.78;82.47;98137.06;4101285;28;20683;-86
2023/12/26 09:00:20;;;;;;;9.20;2.77;;;;;;;10.74;83.31;98133.84;4103207;28;20647;-87
2023/12/26 09:02:25;;;;;;;5.20;2.50;;;;;;;10.76;82.55;98144.19;4105105;28;20735;-87
2023/12/26 09:04:41;;;;;;;6.93;2.27;;;;;;;10.81;82.12;98145.53;4088488;28;21278;-86
2023/12/26 09:06:44;;;;;;;5.50;2.40;;;;;;;10.83;82.25;98154.91;4121675;28;20641;-86
2023/12/26 09:08:47;;;;;;;6.23;2.03;;;;;;;10.80;83.31;98149.91;4108662;28;20636;-87
2023/12/26 09:10:51;;;;;;;4.53;2.20;;;;;;;10.80;81.89;98153.47;4105456;28;20707;-86
2023/12/26 09:12:54;;;;;;;4.30;2.10;;;;;;;10.76;82.38;98157.22;4101585;28;21332;-86
2023/12/26 09:14:58;;;;;;;4.63;2.30;;;;;;;10.78;83.16;98160.56;4119861;28;20650;-88
2023/12/26 09:17:01;;;;;;;4.23;1.83;;;;;;;10.84;83.56;98167.03;4102392;28;20644;-86
2023/12/26 09:19:06;;;;;;;5.43;2.27;;;;;;;10.85;83.42;98168.72;4104183;28;20647;-87
2023/12/26 09:21:10;;;;;;;4.83;2.03;;;;;;;10.88;83.51;98173.72;4083313;28;20673;-90
2023/12/26 09:23:13;;;;;;;6.93;2.00;;;;;;;10.87;82.79;98176.44;4114535;28;20713;-90
2023/12/26 09:25:22;;;;;;;4.23;2.13;;;;;;;10.86;82.51;98180.81;4104793;28;21337;-90
2023/12/26 09:27:26;;;;;;;5.37;2.50;;;;;;;10.83;83.16;98183.63;4103763;28;20644;-87
2023/12/26 09:29:29;;;;;;;8.00;2.30;;;;;;;10.85;83.46;98197.41;4084905;28;20685;-87
2023/12/26 09:31:32;;;;;;;5.40;1.80;;;;;;;10.90;82.49;98197.09;4102085;28;20656;-89
2023/12/26 09:33:36;;;;;;;4.27;2.17;;;;;;;10.88;83.51;98196.34;4103545;28;20651;-90
2023/12/26 09:35:42;;;;;;;4.77;1.90;;;;;;;10.90;81.94;98197.94;4094052;28;20648;-89
2023/12/26 09:37:44;;;;;;;4.40;1.80;;;;;;;10.94;82.97;98194.16;4072923;29;20664;-89
2023/12/26 09:39:47;;;;;;;5.57;2.27;;;;;;;10.94;82.86;98191.53;4106440;28;20644;-86
2023/12/26 09:41:53;;;;;;;6.43;2.23;;;;;;;10.92;83.08;98201.25;4110172;28;20768;-86
2023/12/26 09:43:57;;;;;;;5.87;1.87;;;;;;;10.90;82.79;98192.72;4104612;28;20638;-87
2023/12/26 09:46:02;;;;;;;4.63;1.93;;;;;;;10.94;82.84;98207.19;4100417;28;20636;-85
2023/12/26 09:48:06;;;;;;;7.57;2.20;;;;;;;10.94;82.62;98212.41;4101168;28;20707;-85
2023/12/26 09:50:09;;;;;;;4.47;2.07;;;;;;;10.93;83.79;98210.75;4104876;28;20664;-86
2023/12/26 09:52:15;;;;;;;7.10;2.17;;;;;;;10.96;82.87;98210.56;4108982;28;20651;-87
2023/12/26 09:54:18;;;;;;;3.47;2.10;;;;;;;11.00;83.75;98213.78;4105077;28;20648;-89
2023/12/26 09:56:22;;;;;;;6.20;1.90;;;;;;;10.92;83.95;98211.69;4105076;28;20718;-84